Time;durP1;ratioP1;P1;durP2;ratioP2;P2;SDS_P1;SDS_P2;PMS_P1;PMS_P2;Temp;Humidity;BMP_temperature;BMP_pressure;BME280_temperature;BME280_humidity;BME280_pressure;Samples;Min_cycle;Max_cycle;Signal;HPM_P1;HPM_P2
2022/12/27 00:01:25;;;;;;;67.55;40.05;;;307.30;2304.00;;;;;;5024052;28;19944;-80
2022/12/27 00:03:51;;;;;;;66.57;41.28;;;307.20;2304.00;;;;;;5061839;28;20047;-82
2022/12/27 00:06:19;;;;;;;71.85;43.53;;;307.20;2304.00;;;;;;5030540;28;20109;-83
2022/12/27 00:08:46;;;;;;;66.80;40.53;;;307.20;2304.00;;;;;;5023420;28;20359;-83
2022/12/27 00:11:15;;;;;;;68.45;41.40;;;307.20;2304.00;;;;;;5065909;28;20025;-83
2022/12/27 00:13:41;;;;;;;68.43;41.92;;;307.20;2304.00;;;;;;5024615;28;20026;-82
2022/12/27 00:16:10;;;;;;;70.97;42.53;;;307.20;2304.00;;;;;;5033151;28;20021;-88
2022/12/27 00:18:37;;;;;;;68.38;39.45;;;307.20;2304.00;;;;;;5030757;28;20128;-86
2022/12/27 00:21:04;;;;;;;66.47;40.63;;;307.30;2304.00;;;;;;5026133;28;20041;-86
2022/12/27 00:23:36;;;;;;;67.53;41.00;;;307.20;2304.00;;;;;;5028050;28;20489;-84
2022/12/27 00:26:04;;;;;;;67.45;40.65;;;307.20;2304.00;;;;;;5022969;28;20053;-85
2022/12/27 00:28:31;;;;;;;71.63;41.67;;;307.20;2304.00;;;;;;5029687;28;20033;-84
2022/12/27 00:30:58;;;;;;;70.40;41.33;;;307.20;2304.00;;;;;;5027852;28;20026;-86
2022/12/27 00:33:24;;;;;;;61.55;38.65;;;282.50;2278.40;;;;;;5030848;28;20018;-86
2022/12/27 00:35:50;;;;;;;65.63;40.28;;;307.20;2304.00;;;;;;5028653;28;20037;-84
2022/12/27 00:38:15;;;;;;;61.50;38.00;;;307.20;2304.00;;;;;;5032157;28;20084;-86
2022/12/27 00:40:41;;;;;;;63.78;39.75;;;307.30;2304.00;;;;;;5036689;28;20021;-86
2022/12/27 00:43:07;;;;;;;66.47;38.08;;;307.30;2304.00;;;;;;5035273;28;20061;-85
2022/12/27 00:45:33;;;;;;;62.75;38.40;;;307.30;2304.00;;;;;;5030472;28;20017;-85
2022/12/27 00:47:58;;;;;;;55.40;34.05;;;307.30;2304.00;;;;;;5030002;28;20033;-86
2022/12/27 00:50:24;;;;;;;62.13;34.55;;;307.40;2304.00;;;;;;5063261;28;20489;-85
2022/12/27 00:52:50;;;;;;;54.83;34.88;;;307.50;2304.00;;;;;;5031641;28;20457;-85
2022/12/27 00:55:16;;;;;;;58.58;33.22;;;307.60;2304.00;;;;;;5024359;28;20060;-85
2022/12/27 00:57:42;;;;;;;56.55;33.35;;;307.70;2304.00;;;;;;5030841;28;20072;-85
2022/12/27 01:00:09;;;;;;;56.72;32.67;;;307.80;2304.00;;;;;;5025271;28;20520;-86
2022/12/27 01:02:35;;;;;;;48.33;30.15;;;307.80;2304.00;;;;;;5034336;28;20021;-84
2022/12/27 01:05:01;;;;;;;50.15;30.67;;;307.90;2304.00;;;;;;5033232;28;20029;-86
2022/12/27 01:07:27;;;;;;;54.80;34.25;;;307.90;2304.00;;;;;;5025749;28;20029;-86
2022/12/27 01:09:52;;;;;;;50.28;28.65;;;308.00;2304.00;;;;;;5060512;28;20034;-85
2022/12/27 01:12:18;;;;;;;48.88;26.98;;;308.10;2304.00;;;;;;5027190;28;20472;-85
2022/12/27 01:14:44;;;;;;;42.63;25.00;;;308.10;2304.00;;;;;;5030732;28;20030;-84
2022/12/27 01:17:09;;;;;;;48.35;23.48;;;332.80;2329.60;;;;;;5025671;28;20097;-83
2022/12/27 01:19:36;;;;;;;44.05;23.40;;;332.90;2329.60;;;;;;5026565;28;20042;-85
2022/12/27 01:22:03;;;;;;;43.67;20.17;;;333.00;2329.60;;;;;;5028317;28;20036;-81
2022/12/27 01:24:29;;;;;;;35.85;20.98;;;333.00;2329.60;;;;;;5031164;28;20037;-85
2022/12/27 01:26:54;;;;;;;34.17;19.52;;;333.10;2329.60;;;;;;5029211;28;20120;-85
2022/12/27 01:29:20;;;;;;;32.65;18.83;;;333.10;2329.60;;;;;;5025925;28;20489;-85
2022/12/27 01:31:48;;;;;;;31.90;19.17;;;333.20;2329.60;;;;;;5027640;28;20030;-84
2022/12/27 01:34:15;;;;;;;30.05;18.33;;;333.20;2329.60;;;;;;5062230;28;20026;-81
2022/12/27 01:36:41;;;;;;;31.73;17.88;;;333.30;2329.60;;;;;;5023619;28;20486;-83
2022/12/27 01:39:09;;;;;;;27.60;18.33;;;333.30;2329.60;;;;;;5022094;28;20038;-84
2022/12/27 01:44:42;;;;;;;29.60;16.45;;;333.30;2329.60;;;;;;5027584;28;20032;-83
2022/12/27 01:47:11;;;;;;;20.50;12.60;;;333.40;2329.60;;;;;;5035799;28;20030;-83
2022/12/27 01:49:45;;;;;;;34.65;16.45;;;333.40;2329.60;;;;;;5041800;28;20482;-84
2022/12/27 01:52:12;;;;;;;29.63;16.42;;;333.40;2329.60;;;;;;5041926;28;20038;-83
2022/12/27 01:54:38;;;;;;;25.00;14.40;;;333.40;2329.60;;;;;;5025729;28;20042;-84
2022/12/27 01:57:05;;;;;;;25.70;13.95;;;333.40;2329.60;;;;;;5059246;28;20112;-83
2022/12/27 01:59:32;;;;;;;22.45;12.55;;;333.50;2329.60;;;;;;5025196;28;20124;-84
2022/12/27 02:01:58;;;;;;;20.67;11.75;;;333.50;2329.60;;;;;;5027246;28;20521;-86
2022/12/27 02:04:27;;;;;;;17.50;11.75;;;333.50;2329.60;;;;;;5025301;28;20108;-81
2022/12/27 02:06:53;;;;;;;17.98;10.60;;;333.60;2329.60;;;;;;5038095;28;20018;-87
2022/12/27 02:09:34;;;;;;;14.27;9.02;;;333.70;2329.60;;;;;;5060357;28;20115;-87
2022/12/27 02:12:04;;;;;;;13.77;7.95;;;358.50;2329.60;;;;;;5019505;28;20124;-87
2022/12/27 02:14:40;;;;;;;16.80;8.15;;;358.50;2329.60;;;;;;5027989;28;20030;-81
2022/12/27 02:17:25;;;;;;;17.02;8.38;;;358.60;2329.60;;;;;;5025702;28;20025;-87
2022/12/27 02:19:53;;;;;;;14.07;8.00;;;358.60;2329.60;;;;;;5025354;28;20079;-88
2022/12/27 02:25:40;;;;;;;13.98;7.60;;;358.70;2329.60;;;;;;5021087;28;20041;-87
2022/12/27 02:28:06;;;;;;;19.23;8.75;;;358.70;2329.60;;;;;;5059373;28;20103;-89
2022/12/27 02:30:34;;;;;;;15.02;7.95;;;358.70;2329.60;;;;;;5041532;28;20466;-88
2022/12/27 02:33:05;;;;;;;17.83;8.93;;;358.70;2329.60;;;;;;5028695;28;20161;-88
2022/12/27 02:35:56;;;;;;;18.52;9.02;;;358.70;2329.60;;;;;;5055709;28;20049;-89
2022/12/27 02:38:28;;;;;;;18.83;9.75;;;358.70;2329.60;;;;;;5055803;28;20022;-83
2022/12/27 02:53:03;;;;;;;20.05;10.57;;;358.50;2329.60;;;;;;5023122;28;20567;-85
2022/12/27 02:59:11;;;;;;;20.23;12.25;;;358.50;2329.60;;;;;;5027024;28;20057;-88
2022/12/27 03:05:01;;;;;;;20.42;11.40;;;333.70;2329.60;;;;;;5019177;28;20041;-86
2022/12/27 03:07:32;;;;;;;13.95;9.18;;;333.70;2329.60;;;;;;5026020;28;20029;-87
2022/12/27 03:16:13;;;;;;;17.98;10.80;;;333.60;2329.60;;;;;;5028474;28;20096;-86
2022/12/27 03:27:40;;;;;;;;;;;333.40;2329.60;;;;;;4967018;28;20515;-89
2022/12/27 03:33:13;;;;;;;21.45;11.30;;;333.40;2329.60;;;;;;4966864;28;20098;-88
2022/12/27 03:38:45;;;;;;;20.40;11.45;;;333.40;2329.60;;;;;;4966073;28;20651;-88
2022/12/27 03:44:23;;;;;;;20.08;11.20;;;333.30;2329.60;;;;;;4969013;28;20049;-85
2022/12/27 03:46:48;;;;;;;18.33;11.88;;;333.30;2329.60;;;;;;4966677;28;20118;-88
2022/12/27 03:49:21;;;;;;;22.08;11.57;;;333.30;2329.60;;;;;;4964923;28;20035;-89
2022/12/27 03:52:18;;;;;;;20.13;10.90;;;333.30;2329.60;;;;;;4951935;28;20065;-87
2022/12/27 03:54:45;;;;;;;16.75;9.45;;;333.30;2329.60;;;;;;4954468;28;20463;-88
2022/12/27 03:57:16;;;;;;;26.40;12.98;;;333.20;2329.60;;;;;;4947600;28;20534;-83
2022/12/27 03:59:42;;;;;;;22.05;13.48;;;333.20;2329.60;;;;;;5019761;28;20053;-87
2022/12/27 04:02:09;;;;;;;22.27;12.32;;;333.20;2329.60;;;;;;5023420;28;20037;-87
2022/12/27 04:04:35;;;;;;;17.75;10.75;;;333.30;2329.60;;;;;;5022194;28;20026;-88
2022/12/27 04:07:01;;;;;;;18.73;11.20;;;333.20;2329.60;;;;;;5022073;28;20037;-87
2022/12/27 04:36:50;;;;;;;17.90;9.52;;;333.00;2329.60;;;;;;5024178;28;20068;-89
2022/12/27 04:39:16;;;;;;;17.08;9.57;;;333.00;2329.60;;;;;;5024264;28;20037;-90
2022/12/27 04:56:05;;;;;;;18.55;10.68;;;332.90;2329.60;;;;;;5030547;28;20056;-89
2022/12/27 04:58:32;;;;;;;14.25;9.63;;;332.90;2329.60;;;;;;5026018;28;20040;-88
2022/12/27 05:03:47;;;;;;;15.30;8.98;;;332.90;2329.60;;;;;;5034708;28;20179;-79
2022/12/27 05:06:13;;;;;;;14.25;9.13;;;333.00;2329.60;;;;;;5034056;28;20028;-79
2022/12/27 05:14:12;;;;;;;15.50;8.85;;;333.00;2329.60;;;;;;5034589;28;20040;-79
2022/12/27 05:16:41;;;;;;;13.25;7.70;;;332.90;2329.60;;;;;;5033871;28;20025;-89
2022/12/27 05:19:09;;;;;;;15.52;8.52;;;332.90;2329.60;;;;;;5033716;28;20104;-80
2022/12/27 05:21:36;;;;;;;14.88;8.30;;;333.00;2329.60;;;;;;5042430;28;20032;-85
2022/12/27 05:26:46;;;;;;;13.60;8.32;;;333.00;2329.60;;;;;;5036236;28;20578;-80
2022/12/27 05:29:13;;;;;;;10.57;6.80;;;332.90;2329.60;;;;;;5034585;28;20025;-79
2022/12/27 05:31:39;;;;;;;13.77;7.88;;;332.90;2329.60;;;;;;5034748;28;20025;-87
2022/12/27 05:34:05;;;;;;;18.02;9.05;;;332.90;2329.60;;;;;;5035285;28;20025;-79
2022/12/27 05:36:31;;;;;;;17.35;8.75;;;332.90;2329.60;;;;;;5034716;28;20036;-79
2022/12/27 05:38:58;;;;;;;14.20;8.98;;;332.90;2329.60;;;;;;5034826;28;20037;-81
2022/12/27 05:41:24;;;;;;;28.10;12.10;;;333.00;2329.60;;;;;;5034786;28;20091;-80
2022/12/27 05:43:50;;;;;;;19.70;9.50;;;333.00;2329.60;;;;;;5027566;28;20034;-80
2022/12/27 05:46:19;;;;;;;15.80;8.95;;;333.00;2329.60;;;;;;5031026;28;20025;-80
2022/12/27 05:48:45;;;;;;;18.50;10.00;;;333.00;2329.60;;;;;;5024681;28;20533;-89
2022/12/27 05:51:14;;;;;;;16.50;9.07;;;332.90;2329.60;;;;;;5059767;28;20118;-80
2022/12/27 05:53:40;;;;;;;16.23;8.75;;;332.90;2329.60;;;;;;5029202;28;20060;-78
2022/12/27 05:56:06;;;;;;;17.50;8.63;;;332.90;2329.60;;;;;;5043653;28;20034;-83
2022/12/27 05:58:32;;;;;;;16.88;8.60;;;308.10;2304.00;;;;;;5075878;28;20048;-84
2022/12/27 06:00:59;;;;;;;23.52;9.55;;;308.10;2304.00;;;;;;5065223;28;20105;-88
2022/12/27 06:03:25;;;;;;;15.65;9.10;;;308.10;2304.00;;;;;;5022586;28;20042;-82
2022/12/27 06:05:51;;;;;;;21.40;8.45;;;308.10;2304.00;;;;;;5024400;28;20109;-80
2022/12/27 06:08:17;;;;;;;18.75;9.02;;;308.10;2304.00;;;;;;5025996;28;20387;-83
2022/12/27 06:10:42;;;;;;;13.35;6.53;;;308.10;2304.00;;;;;;5029665;28;20057;-82
2022/12/27 06:13:08;;;;;;;13.07;6.55;;;308.10;2304.00;;;;;;5024306;28;20112;-80
2022/12/27 06:15:35;;;;;;;12.23;7.18;;;308.10;2304.00;;;;;;5016300;28;20065;-81
2022/12/27 06:18:02;;;;;;;16.25;7.03;;;308.10;2304.00;;;;;;5030414;28;20045;-81
2022/12/27 06:20:28;;;;;;;9.75;6.07;;;332.80;2329.60;;;;;;5019202;28;20018;-78
2022/12/27 06:22:54;;;;;;;14.00;6.93;;;332.80;2329.60;;;;;;5024868;28;20033;-80
2022/12/27 06:25:20;;;;;;;12.77;7.57;;;308.10;2304.00;;;;;;5023361;28;20487;-81
2022/12/27 06:27:45;;;;;;;14.48;6.88;;;308.10;2304.00;;;;;;5028487;28;20040;-80
2022/12/27 06:30:12;;;;;;;9.15;6.25;;;308.10;2304.00;;;;;;5027720;28;20022;-82
2022/12/27 06:32:38;;;;;;;8.93;6.07;;;332.80;2329.60;;;;;;5023550;28;20026;-86
2022/12/27 06:35:04;;;;;;;13.13;6.45;;;332.80;2329.60;;;;;;5060378;28;20536;-89
2022/12/27 06:37:30;;;;;;;9.88;5.32;;;308.10;2304.00;;;;;;5031343;28;20490;-80
2022/12/27 06:39:56;;;;;;;19.20;10.18;;;308.10;2304.00;;;;;;5023797;28;20497;-85
2022/12/27 06:42:22;;;;;;;15.27;9.18;;;308.10;2304.00;;;;;;5023469;28;20022;-77
2022/12/27 06:44:48;;;;;;;12.65;6.88;;;308.10;2304.00;;;;;;5023827;28;20026;-79
2022/12/27 06:47:13;;;;;;;11.25;6.53;;;308.10;2304.00;;;;;;5052073;28;20458;-78
2022/12/27 06:49:39;;;;;;;8.77;5.82;;;308.10;2304.00;;;;;;5018212;28;20026;-80
2022/12/27 06:52:05;;;;;;;7.95;5.78;;;332.80;2329.60;;;;;;5025543;28;20059;-80
2022/12/27 06:54:30;;;;;;;49.55;27.17;;;308.10;2304.00;;;;;;5025520;28;20041;-79
2022/12/27 06:56:56;;;;;;;52.88;31.13;;;308.10;2304.00;;;;;;5015804;28;20069;-77
2022/12/27 06:59:23;;;;;;;39.13;23.15;;;308.10;2304.00;;;;;;5024355;28;20064;-78
2022/12/27 07:01:48;;;;;;;50.10;31.20;;;308.10;2304.00;;;;;;5024095;28;20029;-77
2022/12/27 07:04:14;;;;;;;27.17;15.07;;;308.10;2304.00;;;;;;5022406;28;20025;-79
2022/12/27 07:06:40;;;;;;;16.60;10.68;;;308.10;2304.00;;;;;;5027595;28;20099;-79
2022/12/27 07:09:06;;;;;;;14.77;8.80;;;308.10;2304.00;;;;;;5018455;28;20038;-79
2022/12/27 07:11:35;;;;;;;21.27;13.32;;;308.10;2304.00;;;;;;5026541;28;20528;-78
2022/12/27 07:14:02;;;;;;;29.30;15.90;;;308.10;2304.00;;;;;;5025742;28;20033;-78
2022/12/27 07:16:29;;;;;;;27.48;15.88;;;308.10;2304.00;;;;;;5030066;28;20057;-79
2022/12/27 07:18:57;;;;;;;22.58;14.90;;;308.10;2304.00;;;;;;5018527;28;20045;-82
2022/12/27 07:21:24;;;;;;;19.58;13.50;;;308.10;2304.00;;;;;;5021725;28;20477;-81
2022/12/27 07:23:51;;;;;;;17.58;9.43;;;308.10;2304.00;;;;;;5024961;28;20033;-79
2022/12/27 07:26:22;;;;;;;14.07;8.82;;;308.10;2304.00;;;;;;5024164;28;20026;-79
2022/12/27 07:28:48;;;;;;;16.00;9.02;;;308.10;2304.00;;;;;;5018467;28;20021;-79
2022/12/27 07:31:16;;;;;;;10.45;6.70;;;308.10;2304.00;;;;;;5023901;28;20096;-82
2022/12/27 07:33:43;;;;;;;17.38;8.50;;;308.10;2304.00;;;;;;5020047;28;20066;-82
2022/12/27 07:36:13;;;;;;;11.02;7.10;;;308.10;2304.00;;;;;;5020144;28;20042;-79
2022/12/27 07:38:38;;;;;;;15.70;9.32;;;308.10;2304.00;;;;;;5027060;28;20037;-81
2022/12/27 07:41:04;;;;;;;15.50;8.65;;;308.10;2304.00;;;;;;5053393;28;20033;-87
2022/12/27 07:43:32;;;;;;;18.98;8.43;;;308.10;2304.00;;;;;;5024975;28;20036;-82
2022/12/27 07:46:05;;;;;;;15.30;8.32;;;308.10;2304.00;;;;;;5024451;28;20022;-79
2022/12/27 07:48:31;;;;;;;12.82;7.88;;;308.10;2304.00;;;;;;5018595;28;20116;-78
2022/12/27 07:50:57;;;;;;;16.15;8.60;;;308.10;2304.00;;;;;;5059979;28;20187;-79
2022/12/27 07:53:23;;;;;;;14.98;10.10;;;308.10;2304.00;;;;;;5024617;28;20021;-80
2022/12/27 07:55:49;;;;;;;12.50;8.57;;;308.10;2304.00;;;;;;5018183;28;20091;-81
2022/12/27 07:58:16;;;;;;;12.63;8.30;;;332.80;2329.60;;;;;;5027044;28;20033;-80
2022/12/27 08:00:44;;;;;;;13.60;8.23;;;332.80;2329.60;;;;;;5056744;28;20029;-82
2022/12/27 08:03:10;;;;;;;16.60;9.07;;;332.80;2329.60;;;;;;5015998;28;20022;-83
2022/12/27 08:05:36;;;;;;;21.85;12.05;;;308.10;2304.00;;;;;;5018675;28;20022;-80
2022/12/27 08:08:02;;;;;;;;;;;332.80;2329.60;;;;;;5015619;28;20057;-81
2022/12/27 08:10:28;;;;;;;13.87;7.87;;;332.80;2329.60;;;;;;5034717;28;19909;-84
2022/12/27 08:12:53;;;;;;;8.93;6.03;;;332.80;2329.60;;;;;;5026675;28;20337;-84
2022/12/27 08:15:20;;;;;;;8.88;5.22;;;308.10;2304.00;;;;;;5018155;28;20413;-80
2022/12/27 08:17:46;;;;;;;10.77;5.85;;;308.10;2304.00;;;;;;5019611;28;20026;-80
2022/12/27 08:20:15;;;;;;;10.93;6.00;;;308.10;2304.00;;;;;;5021545;28;20432;-79
2022/12/27 08:22:40;;;;;;;11.93;7.00;;;308.10;2304.00;;;;;;5034883;28;20494;-79
2022/12/27 08:25:07;;;;;;;11.15;6.72;;;332.80;2329.60;;;;;;5025542;28;20084;-79
2022/12/27 08:27:33;;;;;;;12.05;6.45;;;332.80;2329.60;;;;;;5059661;28;20045;-83
2022/12/27 08:29:58;;;;;;;8.85;5.85;;;332.90;2329.60;;;;;;5023951;28;20506;-79
2022/12/27 08:32:24;;;;;;;11.63;6.40;;;332.90;2329.60;;;;;;5058039;28;20021;-84
2022/12/27 08:34:50;;;;;;;9.80;6.60;;;332.90;2329.60;;;;;;5025533;28;20030;-81
2022/12/27 08:37:15;;;;;;;9.00;5.45;;;332.90;2329.60;;;;;;5019095;28;20022;-84
2022/12/27 08:39:41;;;;;;;11.48;6.43;;;333.00;2329.60;;;;;;5029977;28;20397;-86
2022/12/27 08:42:12;;;;;;;11.38;6.75;;;333.00;2329.60;;;;;;5022472;28;20490;-86
2022/12/27 08:44:37;;;;;;;12.00;7.15;;;333.00;2329.60;;;;;;5022965;28;20037;-87
2022/12/27 08:47:04;;;;;;;13.70;7.25;;;333.10;2329.60;;;;;;5031449;28;20545;-91
2022/12/27 08:49:30;;;;;;;13.90;7.55;;;333.10;2329.60;;;;;;5024559;28;20064;-90
2022/12/27 08:51:56;;;;;;;13.48;7.65;;;333.20;2329.60;;;;;;5032587;28;20033;-92
2022/12/27 08:54:22;;;;;;;11.13;7.28;;;333.20;2329.60;;;;;;5032768;28;20080;-86
2022/12/27 08:56:48;;;;;;;12.65;7.40;;;333.20;2329.60;;;;;;5032452;28;20037;-86
2022/12/27 08:59:14;;;;;;;12.55;7.88;;;333.20;2329.60;;;;;;5032221;28;20034;-85
2022/12/27 09:01:40;;;;;;;13.57;7.70;;;333.20;2329.60;;;;;;5029994;28;20029;-84
2022/12/27 09:04:06;;;;;;;11.40;7.07;;;333.30;2329.60;;;;;;5016524;28;20034;-87
2022/12/27 09:06:32;;;;;;;12.82;7.85;;;333.30;2329.60;;;;;;5032446;28;20048;-85
2022/12/27 09:08:58;;;;;;;12.18;7.78;;;333.30;2329.60;;;;;;5027824;28;20154;-85
2022/12/27 09:11:29;;;;;;;13.25;7.40;;;333.30;2329.60;;;;;;5047142;28;20041;-81
2022/12/27 09:13:58;;;;;;;12.07;7.38;;;333.30;2329.60;;;;;;5034536;28;20045;-79
2022/12/27 09:16:27;;;;;;;11.82;6.93;;;333.30;2329.60;;;;;;5016828;28;20076;-82
2022/12/27 09:18:55;;;;;;;12.50;7.30;;;333.40;2329.60;;;;;;5019731;28;20056;-81
2022/12/27 09:21:23;;;;;;;9.57;6.72;;;333.40;2329.60;;;;;;5025783;28;20072;-81
2022/12/27 09:23:49;;;;;;;14.80;7.40;;;333.40;2329.60;;;;;;5022877;28;20436;-81
2022/12/27 09:26:19;;;;;;;13.35;7.97;;;333.40;2329.60;;;;;;5018415;28;20022;-82
2022/12/27 09:28:46;;;;;;;15.40;8.52;;;333.40;2329.60;;;;;;5028701;28;20029;-82
2022/12/27 09:31:13;;;;;;;16.45;9.07;;;333.60;2329.60;;;;;;5024543;28;20369;-81
2022/12/27 09:33:39;;;;;;;36.45;16.80;;;333.60;2329.60;;;;;;5027018;28;20025;-80
2022/12/27 09:36:11;;;;;;;27.27;12.85;;;333.60;2329.60;;;;;;5024129;28;20026;-82
2022/12/27 09:38:37;;;;;;;33.33;13.93;;;333.60;2329.60;;;;;;5033144;28;20125;-81
2022/12/27 09:41:14;;;;;;;24.85;11.98;;;333.60;2329.60;;;;;;5023021;28;20058;-81
2022/12/27 09:44:00;;;;;;;16.48;9.20;;;333.70;2329.60;;;;;;5033972;28;20038;-82
2022/12/27 09:46:38;;;;;;;13.55;8.40;;;333.70;2329.60;;;;;;5027090;28;20021;-82
2022/12/27 09:49:07;;;;;;;13.18;7.15;;;358.40;2329.60;;;;;;5021681;28;20060;-82
2022/12/27 09:51:50;;;;;;;12.65;7.05;;;358.50;2329.60;;;;;;5023728;28;20022;-81
2022/12/27 09:55:04;;;;;;;11.57;6.68;;;358.70;2329.60;;;;;;5030853;28;20051;-81
2022/12/27 09:57:39;;;;;;;7.22;5.63;;;358.80;2329.60;;;;;;5017284;28;20037;-81
2022/12/27 10:00:19;;;;;;;12.43;5.90;;;358.90;2329.60;;;;;;5027239;28;20034;-81
2022/12/27 10:02:47;;;;;;;10.60;6.20;;;359.00;2329.60;;;;;;5027111;28;20117;-87
2022/12/27 10:05:27;;;;;;;9.50;5.28;;;359.00;2329.60;;;;;;5059989;28;20511;-83
2022/12/27 10:08:25;;;;;;;10.32;6.50;;;359.10;2329.60;;;;;;5028009;28;20033;-84
2022/12/27 10:10:53;;;;;;;8.40;5.20;;;359.10;2329.60;;;;;;5037062;28;20022;-81
2022/12/27 10:13:25;;;;;;;7.50;4.63;;;359.20;2329.60;;;;;;5060513;28;20029;-80
2022/12/27 10:15:56;;;;;;;8.82;5.65;;;359.20;2329.60;;;;;;5033264;28;20030;-79
2022/12/27 10:18:52;;;;;;;9.43;5.38;;;384.00;2329.60;;;;;;5025483;28;20034;-80
2022/12/27 10:21:27;;;;;;;7.90;5.10;;;384.00;2329.60;;;;;;5020902;28;20030;-80
2022/12/27 10:24:00;;;;;;;12.63;5.30;;;384.00;2329.60;;;;;;5030915;28;20033;-80
2022/12/27 10:26:26;;;;;;;9.80;4.82;;;384.10;2329.60;;;;;;5018591;28;20506;-79
2022/12/27 10:28:55;;;;;;;8.05;4.22;;;384.30;2329.60;;;;;;5022932;28;20026;-80
2022/12/27 10:31:22;;;;;;;6.65;3.88;;;384.40;2329.60;;;;;;5017047;28;20096;-80
2022/12/27 10:33:50;;;;;;;8.27;3.70;;;384.70;2329.60;;;;;;5026550;28;20025;-80
2022/12/27 10:36:21;;;;;;;10.35;4.97;;;384.60;2329.60;;;;;;5019901;28;20079;-79
2022/12/27 10:38:47;;;;;;;17.08;8.90;;;384.70;2329.60;;;;;;5024498;28;20053;-79
2022/12/27 10:41:21;;;;;;;9.55;5.38;;;384.50;2329.60;;;;;;5020730;28;20018;-81
2022/12/27 10:43:51;;;;;;;10.05;5.47;;;384.40;2329.60;;;;;;5035891;28;20382;-79
2022/12/27 10:46:29;;;;;;;10.73;5.25;;;384.20;2329.60;;;;;;5015567;28;20022;-80
2022/12/27 10:49:00;;;;;;;13.65;7.50;;;384.20;2329.60;;;;;;5027494;28;20030;-79
2022/12/27 10:51:40;;;;;;;11.68;6.25;;;384.10;2329.60;;;;;;5025523;28;20018;-80
2022/12/27 10:54:19;;;;;;;14.93;8.13;;;384.10;2329.60;;;;;;5024592;28;20057;-79
2022/12/27 10:56:46;;;;;;;13.40;7.88;;;384.10;2329.60;;;;;;5021425;28;20064;-80
2022/12/27 10:59:12;;;;;;;14.57;7.55;;;384.00;2329.60;;;;;;5021349;28;20048;-81
2022/12/27 11:01:37;;;;;;;13.20;6.95;;;359.30;2329.60;;;;;;5020845;28;20433;-80
2022/12/27 11:04:11;;;;;;;13.77;6.72;;;359.30;2329.60;;;;;;5016403;28;20029;-79
2022/12/27 11:06:37;;;;;;;10.13;6.43;;;359.20;2329.60;;;;;;5033523;28;20053;-80
2022/12/27 11:09:42;;;;;;;12.07;7.13;;;359.20;2329.60;;;;;;5019254;28;20085;-81
2022/12/27 11:12:24;;;;;;;12.88;6.80;;;359.20;2329.60;;;;;;5018417;28;20025;-79
2022/12/27 11:15:03;;;;;;;12.57;5.75;;;359.20;2329.60;;;;;;5026793;28;20029;-80
2022/12/27 11:17:43;;;;;;;11.80;5.97;;;359.20;2329.60;;;;;;5017280;28;20026;-80
2022/12/27 11:20:37;;;;;;;11.45;6.50;;;359.20;2329.60;;;;;;5021868;28;20061;-78
2022/12/27 11:23:08;;;;;;;14.57;6.50;;;359.20;2329.60;;;;;;5021949;28;20061;-80
2022/12/27 11:25:43;;;;;;;12.15;6.00;;;359.10;2329.60;;;;;;5038288;28;20018;-79
2022/12/27 11:28:42;;;;;;;12.07;5.95;;;359.10;2329.60;;;;;;5026365;28;20026;-79
2022/12/27 11:31:17;;;;;;;8.55;4.85;;;359.10;2329.60;;;;;;5021826;28;20535;-82
2022/12/27 11:33:51;;;;;;;12.57;5.22;;;359.10;2329.60;;;;;;5024647;28;20034;-80
2022/12/27 11:36:52;;;;;;;9.68;5.22;;;359.00;2329.60;;;;;;5022840;28;20018;-82
2022/12/27 11:39:40;;;;;;;8.35;4.57;;;359.00;2278.40;;;;;;5053017;28;20029;-83
2022/12/27 11:42:32;;;;;;;11.90;5.05;;;358.90;2022.40;;;;;;5014062;28;20105;-82
2022/12/27 11:45:10;;;;;;;7.85;4.55;;;358.90;2048.00;;;;;;5056223;28;20029;-89
2022/12/27 11:47:48;;;;;;;5.38;3.33;;;358.80;1894.40;;;;;;5039476;28;20482;-81
2022/12/27 11:50:26;;;;;;;7.45;3.38;;;358.70;1766.40;;;;;;5034288;28;20022;-81
2022/12/27 11:53:10;;;;;;;9.20;4.32;;;358.70;1766.40;;;;;;5024676;28;20482;-81
2022/12/27 11:56:04;;;;;;;9.18;3.38;;;358.70;1766.40;;;;;;5036681;28;20132;-80
2022/12/27 11:58:51;;;;;;;9.23;3.28;;;358.70;1792.00;;;;;;5020001;28;20073;-81
2022/12/27 12:01:36;;;;;;;11.30;4.93;;;358.60;1792.00;;;;;;5044668;28;20171;-81
2022/12/27 12:04:16;;;;;;;10.88;3.40;;;358.60;1792.00;;;;;;5015253;28;20037;-82
2022/12/27 12:07:19;;;;;;;8.20;4.03;;;358.70;1843.20;;;;;;5031136;28;20071;-82
2022/12/27 12:10:05;;;;;;;15.25;6.18;;;358.70;1843.20;;;;;;5005021;28;20109;-82
2022/12/27 12:12:54;;;;;;;27.02;11.98;;;358.60;1868.80;;;;;;5028430;28;20539;-77
2022/12/27 12:15:47;;;;;;;9.00;5.10;;;358.70;1945.60;;;;;;5031426;28;20460;-80
2022/12/27 12:18:31;;;;;;;18.83;6.20;;;358.80;1996.80;;;;;;5035844;28;20128;-82
2022/12/27 12:21:35;;;;;;;11.07;5.25;;;358.60;1996.80;;;;;;5023609;28;20037;-82
2022/12/27 12:24:21;;;;;;;12.20;5.78;;;358.50;1996.80;;;;;;4979079;28;20042;-83
2022/12/27 12:26:50;;;;;;;15.63;7.30;;;358.50;2022.40;;;;;;4969813;28;20504;-81
2022/12/27 12:29:22;;;;;;;11.27;5.57;;;358.50;2048.00;;;;;;4965292;28;20118;-82
2022/12/27 12:31:48;;;;;;;24.38;12.00;;;358.50;2048.00;;;;;;4994463;28;20027;-84
2022/12/27 12:34:19;;;;;;;25.38;11.77;;;358.50;2073.60;;;;;;4980323;28;20495;-87
2022/12/27 12:37:23;;;;;;;25.83;11.27;;;358.50;2048.00;;;;;;4947412;29;20023;-89
2022/12/27 12:40:01;;;;;;;47.67;22.50;;;358.50;2048.00;;;;;;4953322;28;20515;-89
2022/12/27 12:42:51;;;;;;;17.10;10.73;;;358.50;2048.00;;;;;;4954674;28;20034;-91
2022/12/27 12:45:28;;;;;;;12.10;5.85;;;358.50;2048.00;;;;;;4970470;28;20022;-87
2022/12/27 12:48:33;;;;;;;24.67;5.22;;;358.40;2099.20;;;;;;4954281;28;20031;-92
2022/12/27 12:51:33;;;;;;;12.52;6.55;;;358.40;2073.60;;;;;;4894352;29;20035;-90
2022/12/27 12:54:21;;;;;;;10.35;5.40;;;358.50;2176.00;;;;;;4857482;29;20050;-91
2022/12/27 12:57:05;;;;;;;15.38;6.15;;;358.50;2124.80;;;;;;4850562;29;20042;-92
2022/12/27 12:59:45;;;;;;;17.70;8.27;;;358.50;2124.80;;;;;;4854243;29;20048;-91
2022/12/27 13:02:32;;;;;;;12.73;6.97;;;358.50;2176.00;;;;;;4868453;29;20057;-92
2022/12/27 13:05:18;;;;;;;13.90;5.72;;;358.40;2201.60;;;;;;4868657;29;20056;-90
2022/12/27 13:08:12;;;;;;;8.77;5.25;;;333.70;2252.80;;;;;;4862064;29;20099;-91
2022/12/27 13:11:02;;;;;;;10.93;6.20;;;333.50;2252.80;;;;;;4859430;29;20035;-91
2022/12/27 13:14:09;;;;;;;17.45;6.28;;;333.60;2329.60;;;;;;4868929;29;20034;-85
2022/12/27 13:17:12;;;;;;;19.85;10.18;;;333.50;2329.60;;;;;;4891592;29;20127;-91
2022/12/27 13:19:54;;;;;;;14.98;8.40;;;333.60;2329.60;;;;;;4904993;29;20048;-84
2022/12/27 13:22:39;;;;;;;20.52;9.43;;;333.60;2329.60;;;;;;4895977;29;20036;-90
2022/12/27 13:25:19;;;;;;;13.63;7.10;;;333.60;2329.60;;;;;;4889267;29;20111;-89
2022/12/27 13:28:11;;;;;;;19.65;9.73;;;333.50;2329.60;;;;;;4907408;29;20488;-91
2022/12/27 13:31:01;;;;;;;19.42;11.00;;;333.50;2329.60;;;;;;5020333;28;20033;-89
2022/12/27 13:33:44;;;;;;;14.23;5.90;;;333.40;2329.60;;;;;;5027935;28;20548;-91
2022/12/27 13:36:29;;;;;;;17.15;8.13;;;333.20;2329.60;;;;;;5018563;28;20057;-91
2022/12/27 13:39:13;;;;;;;20.13;10.05;;;333.20;2329.60;;;;;;5027923;28;20224;-90
2022/12/27 13:42:29;;;;;;;12.63;6.25;;;333.20;2329.60;;;;;;5025258;28;20033;-93
2022/12/27 13:45:20;;;;;;;11.95;5.95;;;333.20;2329.60;;;;;;5019030;28;20037;-92
2022/12/27 13:48:40;;;;;;;12.85;5.15;;;333.20;2329.60;;;;;;5033167;28;20031;-91
2022/12/27 13:51:34;;;;;;;13.10;5.57;;;333.20;2329.60;;;;;;5007914;28;20026;-91
2022/12/27 13:54:40;;;;;;;10.63;5.13;;;333.30;2329.60;;;;;;5014715;28;20056;-89
2022/12/27 13:57:21;;;;;;;11.77;6.15;;;333.10;2329.60;;;;;;5022557;28;20042;-90
2022/12/27 14:00:07;;;;;;;15.07;5.43;;;333.20;2329.60;;;;;;4990066;28;20042;-90
2022/12/27 14:02:36;;;;;;;10.23;5.55;;;333.20;2329.60;;;;;;5017241;28;20071;-91
2022/12/27 14:05:04;;;;;;;13.88;6.47;;;333.20;2329.60;;;;;;4992765;28;20032;-90
2022/12/27 14:07:53;;;;;;;15.88;7.07;;;333.20;2329.60;;;;;;5001816;28;20040;-89
2022/12/27 14:10:35;;;;;;;11.10;6.22;;;333.10;2329.60;;;;;;5005159;28;20363;-90
2022/12/27 14:13:07;;;;;;;12.32;5.63;;;333.10;2329.60;;;;;;5005354;28;20041;-89
2022/12/27 14:15:54;;;;;;;9.93;5.30;;;333.00;2329.60;;;;;;5011132;28;20156;-89